Change the Weather History Date:

Friday, September 27, 2013

  Actual Average (KSDA) Record (KSDA)
Temperature  
Mean Temperature 78 °F -  
Max Temperature 88 °F 75 °F 94 °F (1956)
Min Temperature 69 °F 48 °F 35 °F (2012)
Cooling Degree Days 14    
Growing Degree Days 28 (Base 50)    
Moisture  
Dew Point 58 °F    
Average Humidity 54    
Maximum Humidity 68    
Minimum Humidity 33    
Precipitation  
Precipitation 0.00 in - - ()
Sea Level Pressure  
Sea Level Pressure 29.85 in    
Wind  
Wind Speed 17 mph (South)    
Max Wind Speed 28 mph    
Max Gust Speed 36 mph    
Visibility 10 miles    
Events      
Averages and records for this station are not official NWS values.
T = Trace of Precipitation, MM = Missing Value Source: NWS Daily Summary

Daily Weather History Graph

Daily Weather History Graph

Search for Another Location

Airport or City:

Trip Planner

Search our weather history database for the weather conditions in past years. The results will help you decide how hot, cold, wet, or windy it might be!

Date:

Astronomy

Sep. 27, 2013 Rise Set
Actual Time 7:16 AM CDT 7:11 PM CDT
Civil Twilight 6:48 AM CDT 7:38 PM CDT
Nautical Twilight 6:17 AM CDT 8:10 PM CDT
Astronomical Twilight 5:44 AM CDT 8:42 PM CDT
Moon 12:11 AM CDT (9/27) 2:52 PM CDT (9/27)
Length of Visible Light 12h 49m
Length of Day
11h 55m
Last Quarter, 45% of the Moon is Illuminated
Sep 27
Last Quarter
Oct 4
New
Oct 11
First Quarter
Oct 18
Full
Oct 26
Last Quarter

Hourly Weather History & Observations

Time (CDT) Temp. Heat Index Dew Point Humidity Pressure Visibility Wind Dir Wind Speed Gust Speed Precip Events Conditions
12:15 AM 71.8 °F - 59.0 °F 64% 29.85 in 10.0 mi SSE 11.5 mph - N/A   Clear
12:35 AM 71.4 °F - 59.0 °F 65% 29.85 in 10.0 mi SSE 11.5 mph 19.6 mph N/A   Clear
12:55 AM 70.7 °F - 59.2 °F 67% 29.86 in 10.0 mi SSE 15.0 mph 20.7 mph N/A   Clear
1:15 AM 70.7 °F - 59.2 °F 67% 29.86 in 10.0 mi SSE 15.0 mph 20.7 mph N/A   Clear
1:35 AM 70.7 °F - 59.4 °F 67% 29.86 in 10.0 mi SSE 12.7 mph 18.4 mph N/A   Clear
1:55 AM 70.5 °F - 59.5 °F 68% 29.87 in 10.0 mi SSE 13.8 mph 19.6 mph N/A   Clear
2:15 AM 71.8 °F - 59.2 °F 64% 29.87 in 10.0 mi SSE 20.7 mph 28.8 mph N/A   Clear
2:35 AM 71.6 °F - 59.0 °F 64% 29.87 in 10.0 mi SSE 17.3 mph 26.5 mph N/A   Clear
2:55 AM 71.6 °F - 59.0 °F 64% 29.87 in 10.0 mi SSE 15.0 mph 21.9 mph N/A   Clear
3:15 AM 70.3 °F - 59.2 °F 68% 29.86 in 10.0 mi SSE 13.8 mph 20.7 mph N/A   Clear
3:35 AM 70.2 °F - 59.2 °F 68% 29.86 in 10.0 mi SSE 15.0 mph 23.0 mph N/A   Clear
3:55 AM 70.3 °F - 59.2 °F 68% 29.86 in 10.0 mi SSE 16.1 mph 24.2 mph N/A   Clear
4:15 AM 70.7 °F - 59.0 °F 66% 29.86 in 10.0 mi SSE 17.3 mph 25.3 mph N/A   Clear
4:35 AM 70.2 °F - 59.0 °F 68% 29.86 in 10.0 mi SSE 13.8 mph 21.9 mph N/A   Clear
4:55 AM 70.3 °F - 59.0 °F 67% 29.86 in 10.0 mi South 17.3 mph 24.2 mph N/A   Clear
5:15 AM 70.3 °F - 59.0 °F 67% 29.85 in 10.0 mi SSE 17.3 mph 23.0 mph N/A   Clear
5:35 AM 70.0 °F - 59.0 °F 68% 29.86 in 10.0 mi South 18.4 mph 21.9 mph N/A   Clear
5:55 AM 69.8 °F - 59.0 °F 68% 29.87 in 10.0 mi South 20.7 mph 26.5 mph N/A   Clear
6:15 AM 69.8 °F - 59.0 °F 68% 29.87 in 10.0 mi South 17.3 mph 23.0 mph N/A   Scattered Clouds
6:35 AM 70.0 °F - 58.5 °F 67% 29.87 in 10.0 mi SSE 18.4 mph 23.0 mph N/A   Scattered Clouds
6:55 AM 69.4 °F - 58.5 °F 68% 29.87 in 10.0 mi South 15.0 mph 23.0 mph N/A   Clear
7:15 AM 69.3 °F - 58.5 °F 68% 29.87 in 10.0 mi South 16.1 mph 23.0 mph N/A   Clear
7:35 AM 69.8 °F - 58.3 °F 67% 29.88 in 10.0 mi South 18.4 mph 23.0 mph N/A   Clear
7:55 AM 69.8 °F - 58.5 °F 67% 29.88 in 10.0 mi South 18.4 mph 23.0 mph N/A   Clear
8:15 AM 70.2 °F - 58.3 °F 66% 29.88 in 10.0 mi South 20.7 mph 26.5 mph N/A   Clear
8:35 AM 71.1 °F - 58.5 °F 64% 29.89 in 10.0 mi South 21.9 mph 27.6 mph N/A   Clear
8:55 AM 70.9 °F - 58.8 °F 66% 29.89 in 10.0 mi South 20.7 mph 25.3 mph N/A   Clear
9:15 AM 72.7 °F - 59.2 °F 62% 29.89 in 10.0 mi South 19.6 mph 25.3 mph N/A   Clear
9:35 AM 73.4 °F - 59.0 °F 61% 29.89 in 10.0 mi South 18.4 mph 27.6 mph N/A   Clear
9:55 AM 75.2 °F - 59.0 °F 57% 29.89 in 10.0 mi South 19.6 mph 31.1 mph N/A   Clear
10:15 AM 76.1 °F - 59.4 °F 56% 29.89 in 10.0 mi South 21.9 mph 28.8 mph N/A   Clear
10:35 AM 77.4 °F - 59.0 °F 53% 29.89 in 10.0 mi South 23.0 mph 27.6 mph N/A   Clear
10:55 AM 79.2 °F - 59.4 °F 51% 29.89 in 10.0 mi SSE 19.6 mph 26.5 mph N/A   Clear
11:15 AM 79.0 °F - 58.8 °F 50% 29.89 in 10.0 mi South 21.9 mph 29.9 mph N/A   Clear
11:35 AM 80.8 °F 81.2 °F 58.8 °F 47% 29.88 in 10.0 mi South 23.0 mph 32.2 mph N/A   Clear
11:55 AM 82.2 °F 82.3 °F 59.2 °F 45% 29.87 in 10.0 mi South 21.9 mph 29.9 mph N/A   Clear
12:15 PM 83.3 °F 82.9 °F 58.3 °F 42% 29.87 in 10.0 mi South 19.6 mph 32.2 mph N/A   Clear
12:35 PM 83.8 °F 83.3 °F 57.9 °F 41% 29.87 in 10.0 mi South 25.3 mph 32.2 mph N/A   Clear
12:55 PM 85.6 °F 84.7 °F 57.6 °F 38% 29.86 in 7.0 mi South 21.9 mph 28.8 mph N/A   Clear
1:15 PM 85.8 °F 84.7 °F 56.5 °F 37% 29.86 in 5.0 mi South 27.6 mph 33.4 mph N/A   Haze
1:35 PM 86.2 °F 84.9 °F 56.3 °F 36% 29.85 in 7.0 mi South 25.3 mph 35.7 mph N/A   Clear
1:55 PM 87.1 °F 85.9 °F 57.2 °F 36% 29.84 in 7.0 mi South 26.5 mph 34.5 mph N/A   Clear
2:15 PM 86.9 °F 85.5 °F 56.5 °F 35% 29.84 in 10.0 mi South 24.2 mph 32.2 mph N/A   Clear
2:35 PM 87.4 °F 86.1 °F 56.7 °F 35% 29.83 in 10.0 mi South 23.0 mph 28.8 mph N/A   Clear
2:55 PM 88.0 °F 86.5 °F 55.9 °F 34% 29.82 in 10.0 mi South 21.9 mph 29.9 mph N/A   Clear
3:15 PM 87.8 °F 86.1 °F 55.0 °F 33% 29.82 in 10.0 mi South 24.2 mph 32.2 mph N/A   Clear
3:35 PM 87.4 °F 85.7 °F 55.4 °F 33% 29.81 in 10.0 mi South 25.3 mph 33.4 mph N/A   Clear
3:55 PM 87.6 °F 86.1 °F 56.1 °F 34% 29.81 in 10.0 mi SSW 21.9 mph 31.1 mph N/A   Clear
4:15 PM 87.1 °F 85.5 °F 55.6 °F 34% 29.81 in 10.0 mi South 24.2 mph 33.4 mph N/A   Clear
4:35 PM 87.3 °F 85.9 °F 56.1 °F 35% 29.81 in 10.0 mi South 21.9 mph 31.1 mph N/A   Clear
4:55 PM 86.9 °F 85.3 °F 55.4 °F 34% 29.81 in 10.0 mi South 20.7 mph 27.6 mph N/A   Clear
5:15 PM 86.2 °F 84.5 °F 55.0 °F 34% 29.81 in 10.0 mi South 21.9 mph 29.9 mph N/A   Clear
5:35 PM 85.5 °F 84.1 °F 55.9 °F 36% 29.81 in 10.0 mi South 20.7 mph 26.5 mph N/A   Clear
5:55 PM 84.9 °F 83.6 °F 55.2 °F 36% 29.81 in 10.0 mi South 19.6 mph 26.5 mph N/A   Clear
6:15 PM 83.7 °F 82.8 °F 56.1 °F 39% 29.81 in 10.0 mi SSE 17.3 mph 25.3 mph N/A   Clear
6:35 PM 82.6 °F 82.0 °F 56.3 °F 40% 29.81 in 10.0 mi SSE 11.5 mph 21.9 mph N/A   Clear
6:55 PM 81.5 °F 81.1 °F 55.4 °F 41% 29.81 in 10.0 mi SSE 13.8 mph - N/A   Clear
7:15 PM 79.9 °F - 55.4 °F 43% 29.81 in 10.0 mi South 12.7 mph - N/A   Clear
7:35 PM 79.0 °F - 55.8 °F 45% 29.81 in 10.0 mi SSE 11.5 mph - N/A   Clear
7:55 PM 77.2 °F - 56.5 °F 49% 29.81 in 10.0 mi SSE 8.1 mph - N/A   Clear
8:15 PM 75.7 °F - 57.2 °F 52% 29.82 in 10.0 mi SSE 10.4 mph - N/A   Clear
8:35 PM 74.8 °F - 57.7 °F 55% 29.82 in 10.0 mi SSE 9.2 mph - N/A   Clear
8:55 PM 73.9 °F - 58.1 °F 58% 29.83 in 10.0 mi South 9.2 mph - N/A   Clear
9:15 PM 73.8 °F - 58.5 °F 59% 29.83 in 10.0 mi South 11.5 mph - N/A   Clear
9:35 PM 73.6 °F - 59.0 °F 60% 29.83 in 10.0 mi South 11.5 mph - N/A   Clear
9:55 PM 73.4 °F - 59.0 °F 61% 29.82 in 10.0 mi SSE 13.8 mph - N/A   Clear
10:15 PM 73.0 °F - 59.0 °F 61% 29.81 in 10.0 mi South 13.8 mph - N/A   Clear
10:35 PM 73.2 °F - 59.0 °F 61% 29.81 in 10.0 mi South 15.0 mph 24.2 mph N/A   Clear
10:55 PM 73.0 °F - 59.0 °F 61% 29.80 in 10.0 mi SSE 15.0 mph 20.7 mph N/A   Clear
11:15 PM 72.7 °F - 59.0 °F 62% 29.80 in 10.0 mi South 15.0 mph - N/A   Clear
11:35 PM 72.5 °F - 59.0 °F 62% 29.80 in 10.0 mi South 16.1 mph - N/A   Clear
11:55 PM 72.0 °F - 59.4 °F 64% 29.79 in 10.0 mi South 15.0 mph 20.7 mph N/A   Scattered Clouds